createdAt,value
2022-12-26T00:02:14.370Z,99100.00
2022-12-26T00:04:52.206Z,99103.00
2022-12-26T00:07:23.490Z,99103.00
2022-12-26T00:09:51.391Z,99085.00
2022-12-26T00:12:19.292Z,99098.00
2022-12-26T00:14:49.426Z,99080.00
2022-12-26T00:17:18.728Z,99098.00
2022-12-26T00:19:49.452Z,99087.00
2022-12-26T00:22:19.591Z,99094.00
2022-12-26T00:24:49.190Z,99089.00
2022-12-26T00:27:19.513Z,99087.00
2022-12-26T00:29:50.071Z,99086.00
2022-12-26T00:32:21.552Z,99087.00
2022-12-26T00:34:50.513Z,99087.00
2022-12-26T00:37:19.115Z,99096.00
2022-12-26T00:39:47.229Z,99077.00
2022-12-26T00:42:15.050Z,99085.00
2022-12-26T00:44:44.071Z,99088.00
2022-12-26T00:47:14.569Z,99078.00
2022-12-26T00:50:12.925Z,99078.00
2022-12-26T00:52:35.033Z,99085.00
2022-12-26T00:55:02.917Z,99088.00
2022-12-26T00:57:30.753Z,99096.00
2022-12-26T00:59:58.596Z,99096.00
2022-12-26T01:02:41.914Z,99090.00
2022-12-26T01:05:13.864Z,99088.00
2022-12-26T01:08:19.500Z,99098.00
2022-12-26T01:10:32.922Z,99086.00
2022-12-26T01:13:02.870Z,99101.00
2022-12-26T01:15:30.710Z,99095.00
2022-12-26T01:18:01.228Z,99092.00
2022-12-26T01:20:30.925Z,99075.00
2022-12-26T01:22:59.387Z,99098.00
2022-12-26T01:25:32.685Z,99090.00
2022-12-26T01:28:00.533Z,99082.00
2022-12-26T01:30:29.481Z,99078.00
2022-12-26T01:32:58.063Z,99066.00
2022-12-26T01:35:25.982Z,99093.00
2022-12-26T01:37:56.321Z,99089.00
2022-12-26T01:40:25.695Z,99092.00
2022-12-26T01:42:54.319Z,99103.00
2022-12-26T01:45:32.281Z,99102.00
2022-12-26T01:48:13.048Z,99104.00
2022-12-26T01:50:50.329Z,99093.00
2022-12-26T01:53:27.964Z,99083.00
2022-12-26T01:56:03.228Z,99078.00
2022-12-26T01:58:46.320Z,99080.00
2022-12-26T02:01:16.661Z,99071.00
2022-12-26T02:04:05.236Z,99068.00
2022-12-26T02:06:37.855Z,99067.00
2022-12-26T02:09:09.218Z,99062.00
2022-12-26T02:11:49.717Z,99083.00
2022-12-26T02:15:50.360Z,99081.00
2022-12-26T02:18:20.634Z,99093.00
2022-12-26T02:21:10.871Z,99086.00
2022-12-26T02:24:05.688Z,99086.00
2022-12-26T02:27:20.131Z,99070.00
2022-12-26T02:30:54.974Z,99071.00
2022-12-26T02:33:44.204Z,99087.00
2022-12-26T02:36:51.847Z,99081.00
2022-12-26T02:39:43.835Z,99088.00
2022-12-26T02:42:33.556Z,99088.00
2022-12-26T02:45:34.195Z,99079.00
2022-12-26T02:48:17.052Z,99072.00
2022-12-26T02:51:20.533Z,99054.00
2022-12-26T02:54:24.874Z,99056.00
2022-12-26T02:57:15.820Z,99056.00
2022-12-26T03:00:11.650Z,99060.00
2022-12-26T03:03:05.875Z,99072.00
2022-12-26T03:06:01.139Z,99071.00
2022-12-26T03:08:53.049Z,99070.00
2022-12-26T03:11:40.567Z,99061.00
2022-12-26T03:14:19.932Z,99061.00
2022-12-26T03:17:14.843Z,99060.00
2022-12-26T03:20:00.236Z,99069.00
2022-12-26T03:22:41.828Z,99064.00
2022-12-26T03:25:44.464Z,99065.00
2022-12-26T03:28:13.926Z,99064.00
2022-12-26T03:30:52.101Z,99056.00
2022-12-26T03:33:44.445Z,99055.00
2022-12-26T03:36:18.008Z,99074.00
2022-12-26T03:39:07.828Z,99083.00
2022-12-26T03:45:42.481Z,99076.00
2022-12-26T03:48:42.851Z,99070.00
2022-12-26T03:51:42.364Z,99065.00
2022-12-26T03:54:43.717Z,99076.00
2022-12-26T03:57:42.550Z,99080.00
2022-12-26T04:00:34.579Z,99058.00
2022-12-26T04:03:30.689Z,99074.00
2022-12-26T04:06:21.180Z,99061.00
2022-12-26T04:09:16.186Z,99093.00
2022-12-26T04:12:12.178Z,99090.00
2022-12-26T04:15:11.899Z,99104.00
2022-12-26T04:18:07.119Z,99118.00
2022-12-26T04:20:48.310Z,99118.00
2022-12-26T04:23:46.262Z,99122.00
2022-12-26T04:26:41.106Z,99117.00
2022-12-26T04:29:29.430Z,99121.00
2022-12-26T04:32:26.850Z,99123.00
2022-12-26T04:35:26.124Z,99106.00
2022-12-26T04:38:17.568Z,99098.00
2022-12-26T04:44:03.936Z,99111.00
2022-12-26T04:46:36.278Z,99114.00
2022-12-26T04:49:31.220Z,99107.00
2022-12-26T04:52:04.923Z,99095.00
2022-12-26T04:54:34.992Z,99093.00
2022-12-26T04:57:02.939Z,99093.00
2022-12-26T04:59:30.776Z,99081.00
2022-12-26T05:02:32.750Z,99080.00
2022-12-26T05:05:20.353Z,99070.00
2022-12-26T05:08:06.868Z,99070.00
2022-12-26T05:10:35.810Z,99084.00
2022-12-26T05:13:06.309Z,99093.00
2022-12-26T05:15:57.867Z,99079.00
2022-12-26T05:18:47.689Z,99093.00
2022-12-26T05:21:37.699Z,99097.00
2022-12-26T05:24:27.572Z,99105.00
2022-12-26T05:27:13.102Z,99098.00
2022-12-26T05:29:44.117Z,99100.00
2022-12-26T05:32:14.351Z,99116.00
2022-12-26T05:34:45.603Z,99117.00
2022-12-26T05:37:14.677Z,99131.00
2022-12-26T05:39:44.210Z,99127.00
2022-12-26T05:42:13.613Z,99132.00
2022-12-26T05:44:47.310Z,99133.00
2022-12-26T05:47:15.166Z,99129.00
2022-12-26T05:49:48.044Z,99120.00
2022-12-26T05:52:18.700Z,99117.00
2022-12-26T05:54:48.308Z,99111.00
2022-12-26T05:57:16.139Z,99104.00
2022-12-26T05:59:51.112Z,99105.00
2022-12-26T06:02:20.452Z,99102.00
2022-12-26T06:04:52.144Z,99091.00
2022-12-26T06:07:20.022Z,99091.00
2022-12-26T06:09:49.207Z,99086.00
2022-12-26T06:12:17.030Z,99071.00
2022-12-26T06:14:48.249Z,99083.00
2022-12-26T06:17:18.601Z,99066.00
2022-12-26T06:19:48.749Z,99080.00
2022-12-26T06:22:21.539Z,99085.00
2022-12-26T06:24:50.265Z,99101.00
2022-12-26T06:27:23.332Z,99097.00
2022-12-26T06:29:53.539Z,99103.00
2022-12-26T06:32:24.110Z,99091.00
2022-12-26T06:34:54.275Z,99093.00
2022-12-26T06:37:26.053Z,99119.00
2022-12-26T06:39:55.288Z,99126.00
2022-12-26T06:42:25.400Z,99120.00
2022-12-26T06:44:58.542Z,99140.00
2022-12-26T06:47:26.370Z,99121.00
2022-12-26T06:49:54.306Z,99123.00
2022-12-26T06:52:23.464Z,99144.00
2022-12-26T06:54:51.574Z,99145.00
2022-12-26T06:57:20.656Z,99137.00
2022-12-26T06:59:49.666Z,99135.00
2022-12-26T07:02:17.601Z,99133.00
2022-12-26T07:04:45.461Z,99134.00
2022-12-26T07:07:14.606Z,99132.00
2022-12-26T07:09:50.213Z,99134.00
2022-12-26T07:12:24.083Z,99136.00
2022-12-26T07:14:59.703Z,99147.00
2022-12-26T07:17:29.302Z,99158.00
2022-12-26T07:19:59.505Z,99139.00
2022-12-26T07:22:29.993Z,99136.00
2022-12-26T07:25:04.024Z,99140.00
2022-12-26T07:27:31.889Z,99147.00
2022-12-26T07:29:59.776Z,99130.00
2022-12-26T07:32:30.133Z,99142.00
2022-12-26T07:34:58.027Z,99140.00
2022-12-26T07:37:25.909Z,99152.00
2022-12-26T07:39:58.731Z,99149.00
2022-12-26T07:42:32.608Z,99156.00
2022-12-26T07:45:02.888Z,99158.00
2022-12-26T07:47:30.800Z,99156.00
2022-12-26T07:49:58.687Z,99153.00
2022-12-26T07:52:28.887Z,99150.00
2022-12-26T07:54:59.221Z,99151.00
2022-12-26T08:00:20.113Z,99147.00
2022-12-26T08:02:53.134Z,99149.00
2022-12-26T08:05:21.417Z,99151.00
2022-12-26T08:07:51.340Z,99174.00
2022-12-26T08:10:20.741Z,99172.00
2022-12-26T08:12:49.903Z,99171.00
2022-12-26T08:15:19.470Z,99188.00
2022-12-26T08:17:47.327Z,99188.00
2022-12-26T08:20:16.479Z,99190.00
2022-12-26T08:22:46.246Z,99184.00
2022-12-26T08:25:24.141Z,99182.00
2022-12-26T08:27:52.481Z,99184.00
2022-12-26T08:30:25.271Z,99191.00
2022-12-26T08:32:55.480Z,99182.00
2022-12-26T08:35:26.671Z,99186.00
2022-12-26T08:37:55.556Z,99192.00
2022-12-26T08:40:42.075Z,99198.00
2022-12-26T08:43:31.061Z,99207.00
2022-12-26T08:46:03.698Z,99190.00
2022-12-26T08:48:33.183Z,99192.00
2022-12-26T08:51:04.526Z,99189.00
2022-12-26T08:53:36.835Z,99178.00
2022-12-26T08:56:11.481Z,99169.00
2022-12-26T08:58:39.604Z,99193.00
2022-12-26T09:01:11.450Z,99179.00
2022-12-26T09:03:41.700Z,99184.00
2022-12-26T09:06:16.856Z,99203.00
2022-12-26T09:08:46.344Z,99199.00
2022-12-26T09:11:20.442Z,99210.00
2022-12-26T09:13:50.999Z,99212.00
2022-12-26T09:16:24.794Z,99223.00
2022-12-26T09:18:58.063Z,99221.00
2022-12-26T09:21:26.513Z,99225.00
2022-12-26T09:23:58.879Z,99221.00
2022-12-26T09:26:27.746Z,99221.00
2022-12-26T09:28:56.802Z,99226.00
2022-12-26T09:31:33.556Z,99211.00
2022-12-26T09:34:07.693Z,99212.00
2022-12-26T09:36:40.981Z,99214.00
2022-12-26T09:39:09.897Z,99211.00
2022-12-26T09:41:54.894Z,99211.00
2022-12-26T09:44:39.393Z,99212.00
2022-12-26T09:47:47.412Z,99210.00
2022-12-26T09:50:28.106Z,99196.00
2022-12-26T09:53:01.032Z,99190.00
2022-12-26T09:55:38.812Z,99198.00
2022-12-26T09:58:28.238Z,99197.00
2022-12-26T10:01:04.076Z,99208.00
2022-12-26T10:03:40.883Z,99196.00
2022-12-26T10:06:22.121Z,99179.00
2022-12-26T10:09:22.157Z,99194.00
2022-12-26T10:12:43.631Z,99215.00
2022-12-26T10:15:55.647Z,99209.00
2022-12-26T10:18:46.359Z,99206.00
2022-12-26T10:21:44.856Z,99201.00
2022-12-26T10:24:20.825Z,99199.00
2022-12-26T10:26:54.041Z,99197.00
2022-12-26T10:29:30.610Z,99190.00
2022-12-26T10:32:07.058Z,99196.00
2022-12-26T10:37:30.870Z,99191.00
2022-12-26T10:40:16.688Z,99195.00
2022-12-26T10:42:52.568Z,99192.00
2022-12-26T10:45:33.784Z,99199.00
2022-12-26T10:48:03.395Z,99203.00
2022-12-26T10:50:35.773Z,99192.00
2022-12-26T10:53:10.871Z,99189.00
2022-12-26T10:55:39.748Z,99198.00
2022-12-26T10:58:25.777Z,99189.00
2022-12-26T11:00:55.530Z,99184.00
2022-12-26T11:03:25.713Z,99178.00
2022-12-26T11:06:07.506Z,99188.00
2022-12-26T11:08:47.243Z,99185.00
2022-12-26T11:11:46.432Z,99191.00
2022-12-26T11:14:38.759Z,99196.00
2022-12-26T11:17:12.189Z,99176.00
2022-12-26T11:19:57.787Z,99194.00
2022-12-26T11:22:29.470Z,99193.00
2022-12-26T11:25:19.420Z,99176.00
2022-12-26T11:27:51.494Z,99184.00
2022-12-26T11:30:37.833Z,99191.00
2022-12-26T11:33:46.203Z,99176.00
2022-12-26T11:36:22.903Z,99173.00
2022-12-26T11:39:03.086Z,99163.00
2022-12-26T11:41:46.386Z,99154.00
2022-12-26T11:44:41.010Z,99169.00
2022-12-26T11:47:27.365Z,99166.00
2022-12-26T11:50:03.203Z,99175.00
2022-12-26T11:52:39.124Z,99173.00
2022-12-26T11:55:34.379Z,99180.00
2022-12-26T11:58:19.251Z,99175.00
2022-12-26T12:01:21.311Z,99161.00
2022-12-26T12:03:52.846Z,99161.00
2022-12-26T12:06:49.368Z,99180.00
2022-12-26T12:09:31.132Z,99168.00
2022-12-26T12:12:12.911Z,99169.00
2022-12-26T12:15:04.401Z,99162.00
2022-12-26T12:17:49.530Z,99162.00
2022-12-26T12:20:32.575Z,99171.00
2022-12-26T12:23:30.764Z,99168.00
2022-12-26T12:26:11.665Z,99246.00
2022-12-26T12:29:21.499Z,99257.00
2022-12-26T12:32:09.324Z,99261.00
2022-12-26T12:35:08.573Z,99247.00
2022-12-26T12:37:58.139Z,99244.00
2022-12-26T12:40:40.203Z,99248.00
2022-12-26T12:43:28.403Z,99250.00
2022-12-26T12:46:11.751Z,99237.00
2022-12-26T12:48:59.458Z,99243.00
2022-12-26T12:51:40.840Z,99254.00
2022-12-26T12:54:55.570Z,99253.00
2022-12-26T12:57:52.188Z,99246.00
2022-12-26T13:00:23.579Z,99258.00
2022-12-26T13:03:13.741Z,99260.00
2022-12-26T13:05:58.844Z,99256.00
2022-12-26T13:08:33.269Z,99252.00
2022-12-26T13:11:18.084Z,99237.00
2022-12-26T13:13:54.071Z,99250.00
2022-12-26T13:16:28.398Z,99264.00
2022-12-26T13:19:06.983Z,99241.00
2022-12-26T13:22:02.838Z,99260.00
2022-12-26T13:24:35.846Z,99248.00
2022-12-26T13:27:14.724Z,99257.00
2022-12-26T13:29:49.668Z,99255.00
2022-12-26T13:32:27.113Z,99261.00
2022-12-26T13:35:00.958Z,99260.00
2022-12-26T13:37:59.339Z,99255.00
2022-12-26T13:40:32.075Z,99257.00
2022-12-26T13:43:28.025Z,99249.00
2022-12-26T13:45:58.362Z,99226.00
2022-12-26T13:48:59.790Z,99249.00
2022-12-26T13:51:55.672Z,99253.00
2022-12-26T13:54:28.336Z,99255.00
2022-12-26T13:57:39.430Z,99256.00
2022-12-26T14:00:24.243Z,99247.00
2022-12-26T14:03:44.863Z,99248.00
2022-12-26T14:06:53.595Z,99251.00
2022-12-26T14:09:46.764Z,99251.00
2022-12-26T14:13:02.315Z,99252.00
2022-12-26T14:15:57.277Z,99248.00
2022-12-26T14:18:42.134Z,99241.00
2022-12-26T14:21:45.389Z,99242.00
2022-12-26T14:24:32.469Z,99246.00
2022-12-26T14:27:32.887Z,99244.00
2022-12-26T14:30:23.018Z,99247.00
2022-12-26T14:33:29.719Z,99238.00
2022-12-26T14:36:19.501Z,99253.00
2022-12-26T14:38:59.076Z,99254.00
2022-12-26T14:41:49.806Z,99260.00
2022-12-26T14:44:53.099Z,99264.00
2022-12-26T14:47:40.969Z,99269.00
2022-12-26T14:50:47.610Z,99271.00
2022-12-26T14:53:42.635Z,99266.00
2022-12-26T14:59:36.023Z,99261.00
2022-12-26T15:02:58.153Z,99262.00
2022-12-26T15:05:54.006Z,99256.00
2022-12-26T15:08:54.342Z,99264.00
2022-12-26T15:13:03.124Z,99271.00
2022-12-26T15:16:29.436Z,99284.00
2022-12-26T15:19:58.102Z,99279.00
2022-12-26T15:23:09.208Z,99285.00
2022-12-26T15:26:04.155Z,99289.00
2022-12-26T15:29:20.062Z,99280.00
2022-12-26T15:32:06.736Z,99286.00
2022-12-26T15:34:57.878Z,99285.00
2022-12-26T15:38:18.299Z,99280.00
2022-12-26T15:41:05.493Z,99271.00
2022-12-26T15:44:24.844Z,99286.00
2022-12-26T15:47:28.176Z,99274.00
2022-12-26T15:50:23.437Z,99275.00
2022-12-26T15:53:10.986Z,99274.00
2022-12-26T15:56:10.044Z,99277.00
2022-12-26T15:59:26.864Z,99275.00
2022-12-26T16:02:00.614Z,99265.00
2022-12-26T16:04:36.063Z,99277.00
2022-12-26T16:07:36.426Z,99265.00
2022-12-26T16:10:30.975Z,99249.00
2022-12-26T16:13:04.636Z,99264.00
2022-12-26T16:15:38.052Z,99279.00
2022-12-26T16:18:18.804Z,99271.00
2022-12-26T16:21:10.724Z,99266.00
2022-12-26T16:23:42.867Z,99266.00
2022-12-26T16:26:24.415Z,99266.00
2022-12-26T16:28:54.071Z,99268.00
2022-12-26T16:31:27.150Z,99266.00
2022-12-26T16:33:59.492Z,99276.00
2022-12-26T16:36:36.525Z,99279.00
2022-12-26T16:39:10.555Z,99279.00
2022-12-26T16:42:01.915Z,99278.00
2022-12-26T16:44:40.397Z,99277.00
2022-12-26T16:47:22.041Z,99273.00
2022-12-26T16:49:57.647Z,99277.00
2022-12-26T16:52:43.895Z,99279.00
2022-12-26T16:55:36.551Z,99279.00
2022-12-26T16:58:21.999Z,99281.00
2022-12-26T17:01:10.723Z,99290.00
2022-12-26T17:03:59.889Z,99281.00
2022-12-26T17:06:35.226Z,99286.00
2022-12-26T17:09:09.484Z,99282.00
2022-12-26T17:11:46.023Z,99277.00
2022-12-26T17:14:22.917Z,99278.00
2022-12-26T17:16:59.152Z,99270.00
2022-12-26T17:19:32.488Z,99275.00
2022-12-26T17:22:31.373Z,99274.00
2022-12-26T17:25:27.760Z,99284.00
2022-12-26T17:28:31.137Z,99268.00
2022-12-26T17:31:17.430Z,99271.00
2022-12-26T17:33:48.247Z,99263.00
2022-12-26T17:39:27.587Z,99275.00
2022-12-26T17:42:00.830Z,99282.00
2022-12-26T17:44:43.474Z,99277.00
2022-12-26T17:47:21.027Z,99274.00
2022-12-26T17:49:54.515Z,99278.00
2022-12-26T17:52:29.002Z,99276.00
2022-12-26T17:54:59.009Z,99267.00
2022-12-26T17:57:30.245Z,99277.00
2022-12-26T17:59:59.384Z,99266.00
2022-12-26T18:02:32.210Z,99270.00
2022-12-26T18:05:00.633Z,99273.00
2022-12-26T18:07:32.455Z,99273.00
2022-12-26T18:10:01.188Z,99279.00
2022-12-26T18:12:32.070Z,99281.00
2022-12-26T18:15:02.754Z,99282.00
2022-12-26T18:17:34.476Z,99272.00
2022-12-26T18:20:03.233Z,99269.00
2022-12-26T18:22:35.894Z,99265.00
2022-12-26T18:25:06.216Z,99241.00
2022-12-26T18:27:35.199Z,99257.00
2022-12-26T18:30:03.297Z,99246.00
2022-12-26T18:32:36.648Z,99227.00
2022-12-26T18:35:06.022Z,99229.00
2022-12-26T18:37:37.153Z,99230.00
2022-12-26T18:40:24.889Z,99233.00
2022-12-26T18:42:53.660Z,99244.00
2022-12-26T18:45:25.782Z,99244.00
2022-12-26T18:47:54.951Z,99235.00
2022-12-26T18:50:32.385Z,99234.00
2022-12-26T18:53:04.063Z,99237.00
2022-12-26T18:55:32.041Z,99239.00
2022-12-26T18:58:02.155Z,99239.00
2022-12-26T19:00:30.296Z,99248.00
2022-12-26T19:02:58.824Z,99256.00
2022-12-26T19:05:31.625Z,99254.00
2022-12-26T19:08:01.467Z,99253.00
2022-12-26T19:10:34.926Z,99252.00
2022-12-26T19:13:06.992Z,99260.00
2022-12-26T19:15:36.669Z,99268.00
2022-12-26T19:18:08.201Z,99263.00
2022-12-26T19:20:43.959Z,99260.00
2022-12-26T19:23:14.069Z,99267.00
2022-12-26T19:25:43.313Z,99266.00
2022-12-26T19:28:12.680Z,99280.00
2022-12-26T19:30:42.727Z,99300.00
2022-12-26T19:33:10.679Z,99295.00
2022-12-26T19:35:38.981Z,99323.00
2022-12-26T19:38:08.342Z,99326.00
2022-12-26T19:40:36.276Z,99335.00
2022-12-26T19:43:06.266Z,99327.00
2022-12-26T19:45:34.347Z,99342.00
2022-12-26T19:48:03.657Z,99350.00
2022-12-26T19:50:33.821Z,99334.00
2022-12-26T19:53:02.892Z,99368.00
2022-12-26T19:55:30.853Z,99369.00
2022-12-26T19:57:59.658Z,99367.00
2022-12-26T20:00:29.280Z,99394.00
2022-12-26T20:02:59.015Z,99410.00
2022-12-26T20:05:29.359Z,99428.00
2022-12-26T20:07:58.465Z,99437.00
2022-12-26T20:10:31.318Z,99430.00
2022-12-26T20:12:59.682Z,99434.00
2022-12-26T20:15:33.724Z,99443.00
2022-12-26T20:18:02.902Z,99433.00
2022-12-26T20:20:33.044Z,99411.00
2022-12-26T20:23:01.009Z,99402.00
2022-12-26T20:25:31.808Z,99379.00
2022-12-26T20:28:01.941Z,99389.00
2022-12-26T20:30:31.280Z,99405.00
2022-12-26T20:32:59.236Z,99410.00
2022-12-26T20:35:29.075Z,99420.00
2022-12-26T20:37:57.039Z,99428.00
2022-12-26T20:40:29.944Z,99417.00
2022-12-26T20:42:59.759Z,99397.00
2022-12-26T20:45:29.286Z,99408.00
2022-12-26T20:48:03.164Z,99418.00
2022-12-26T20:50:33.686Z,99435.00
2022-12-26T20:53:04.044Z,99440.00
2022-12-26T20:55:34.616Z,99434.00
2022-12-26T20:58:04.187Z,99440.00
2022-12-26T21:00:34.126Z,99450.00
2022-12-26T21:03:04.903Z,99461.00
2022-12-26T21:05:32.838Z,99475.00
2022-12-26T21:08:00.772Z,99495.00
2022-12-26T21:10:29.914Z,99506.00
2022-12-26T21:13:00.233Z,99502.00
2022-12-26T21:15:28.458Z,99519.00
2022-12-26T21:17:56.346Z,99507.00
2022-12-26T21:20:27.354Z,99516.00
2022-12-26T21:22:56.238Z,99518.00
2022-12-26T21:25:25.485Z,99520.00
2022-12-26T21:27:58.880Z,99531.00
2022-12-26T21:30:27.498Z,99533.00
2022-12-26T21:32:55.419Z,99539.00
2022-12-26T21:35:24.942Z,99549.00
2022-12-26T21:37:54.391Z,99564.00
2022-12-26T21:40:27.862Z,99568.00
2022-12-26T21:43:03.373Z,99568.00
2022-12-26T21:45:31.269Z,99591.00
2022-12-26T21:47:59.150Z,99580.00
2022-12-26T21:50:29.413Z,99589.00
2022-12-26T21:52:58.911Z,99601.00
2022-12-26T21:55:31.174Z,99623.00
2022-12-26T21:58:04.546Z,99618.00
2022-12-26T22:00:35.304Z,99614.00
2022-12-26T22:03:22.030Z,99617.00
2022-12-26T22:05:50.659Z,99624.00
2022-12-26T22:08:20.964Z,99624.00
2022-12-26T22:11:08.575Z,99623.00
2022-12-26T22:13:45.528Z,99632.00
2022-12-26T22:16:16.206Z,99628.00
2022-12-26T22:18:48.245Z,99650.00
2022-12-26T22:21:20.411Z,99651.00
2022-12-26T22:24:04.945Z,99648.00
2022-12-26T22:26:35.479Z,99650.00
2022-12-26T22:29:06.145Z,99659.00
2022-12-26T22:31:36.944Z,99660.00
2022-12-26T22:34:10.606Z,99662.00
2022-12-26T22:36:41.033Z,99674.00
2022-12-26T22:39:16.959Z,99675.00
2022-12-26T22:41:46.820Z,99684.00
2022-12-26T22:44:15.666Z,99697.00
2022-12-26T22:46:45.332Z,99693.00
2022-12-26T22:49:13.264Z,99706.00
2022-12-26T22:51:42.779Z,99694.00
2022-12-26T22:54:11.986Z,99708.00
2022-12-26T22:56:40.122Z,99709.00
2022-12-26T22:59:33.851Z,99720.00
2022-12-26T23:02:05.093Z,99718.00
2022-12-26T23:04:34.995Z,99717.00
2022-12-26T23:07:04.127Z,99688.00
2022-12-26T23:09:36.281Z,99722.00
2022-12-26T23:12:25.385Z,99706.00
2022-12-26T23:14:56.681Z,99713.00
2022-12-26T23:17:48.725Z,99718.00
2022-12-26T23:20:46.235Z,99715.00
2022-12-26T23:23:14.742Z,99723.00
2022-12-26T23:25:44.123Z,99731.00
2022-12-26T23:28:30.038Z,99720.00
2022-12-26T23:30:58.996Z,99732.00
2022-12-26T23:33:27.010Z,99726.00
2022-12-26T23:35:56.899Z,99739.00
2022-12-26T23:38:24.940Z,99751.00
2022-12-26T23:41:00.552Z,99744.00
2022-12-26T23:43:28.431Z,99750.00
2022-12-26T23:46:10.622Z,99751.00
2022-12-26T23:48:39.822Z,99755.00
2022-12-26T23:51:09.802Z,99759.00
2022-12-26T23:53:38.096Z,99759.00
2022-12-26T23:56:11.087Z,99759.00
2022-12-26T23:58:44.221Z,99760.00
